TS98 weather

Memorial Hermann Southwest Hospital Heliport
Houston, Texas, United States

Public forecast

Using degrees Fahrenheit for public forecast. Weather courtesy of forecast.io.

METAR (pilot weather report)

Closest report is Sugar Land Regional Airport, 8.3 nm (15.4 km) WSW. Retrieved 2019/07/18 03:53 UTC (29 minutes ago):

KSGR 180353Z AUTO 16009KT 10SM CLR 28/25 A3001 RMK AO2 SLP161 T02780250

TAF (pilot weather forecast)

Forecast is more than 12 hours old.

Closest forecast is Sugar Land Regional Airport, 8.3 nm (15.4 km) WSW. Retrieved 2019/07/17 00:24 UTC (1 day ago):

TAF KSGR 172322Z 1800/1824 17011KT P6SM FEW040 SCT250 FM180600 17005KT P6SM SCT020 FM181500 17008KT P6SM SCT030 FM181800 17013G23KT P6SM SCT040